S C — FGF7634 — position and weather

sailwx.info

Track history (hours):
 
Tides and Currents Weather Stations Pressure Air Temp Water Temp Dewpoint Dewpoint Depression Visibility Wind Speed Wind Dir Waves Ship Positions

S C

Last reported at 2014-Nov-23 10:33 UTC. Time now 2014-Nov-23 11:12 UTC.
Position N 49°29' E 000°07'.

; draft 1 m.

Type: Pilot. MMSI: 227001820.

Date/timePositionNaut miles runAvg speedWind from/ knotsBaromVisibWave heightAir tempDewpointWater temp
2014-Nov-23 10:33N 49°29' E 000°07'0 0.0
2014-Nov-23 09:34N 49°29' E 000°07'2 2.3
2014-Nov-23 08:33N 49°30' E 000°03'5 4.9
2014-Nov-23 07:34N 49°31' W 000°04'7 7.2
2014-Nov-23 06:33N 49°29' E 000°07'0 0.0
2014-Nov-23 05:33N 49°29' E 000°07'0 0.0
2014-Nov-23 04:33N 49°29' E 000°07'0 0.0
2014-Nov-23 03:33N 49°29' E 000°07'0 0.0
2014-Nov-23 02:33N 49°29' E 000°07'0 0.0
2014-Nov-23 01:33N 49°29' E 000°07'0 0.0
2014-Nov-23 00:33N 49°29' E 000°07'0 0.0
2014-Nov-22 23:33N 49°29' E 000°07'0 0.0
2014-Nov-22 22:33N 49°29' E 000°07'0 0.0
2014-Nov-22 21:33N 49°29' E 000°07'6 5.7
2014-Nov-22 20:33N 49°31' W 000°02'6 5.7
2014-Nov-22 19:33N 49°29' E 000°07'0 0.0
2014-Nov-22 18:33N 49°29' E 000°07'0 0.0
2014-Nov-22 17:33N 49°29' E 000°07'0 0.0
2014-Nov-22 09:05N 49°29' E 000°07'  
2014-Nov-17 08:33N 49°29' E 000°07'0 0.0
2014-Nov-16 16:33N 49°29' E 000°07'  
2014-Nov-14 09:34N 49°29' E 000°07'0 0.0
2014-Nov-13 15:33N 49°29' E 000°07'0 0.0
2014-Nov-13 14:33N 49°29' E 000°07'0 0.0
2014-Nov-13 13:33N 49°29' E 000°07'0 0.0
2014-Nov-13 12:33N 49°29' E 000°07'0 0.0
2014-Nov-13 11:33N 49°29' E 000°07'  
Track history (hours):
 
Tides and Currents Weather Stations Pressure Air Temp Water Temp Dewpoint Dewpoint Depression Visibility Wind Speed Wind Dir Waves Ship Positions

S C

Last reported at 2014-Nov-23 10:33 UTC. Time now 2014-Nov-23 11:12 UTC.
Position N 49°29' E 000°07'.

; draft 1 m.

Type: Pilot. MMSI: 227001820.

Date/timePositionNaut miles runAvg speedWind from/ knotsBaromVisibWave heightAir tempDewpointWater temp
2014-Nov-23 10:33N 49°29' E 000°07'0 0.0
2014-Nov-23 09:34N 49°29' E 000°07'2 2.3
2014-Nov-23 08:33N 49°30' E 000°03'5 4.9
2014-Nov-23 07:34N 49°31' W 000°04'7 7.2
2014-Nov-23 06:33N 49°29' E 000°07'0 0.0
2014-Nov-23 05:33N 49°29' E 000°07'0 0.0
2014-Nov-23 04:33N 49°29' E 000°07'0 0.0
2014-Nov-23 03:33N 49°29' E 000°07'0 0.0
2014-Nov-23 02:33N 49°29' E 000°07'0 0.0
2014-Nov-23 01:33N 49°29' E 000°07'0 0.0
2014-Nov-23 00:33N 49°29' E 000°07'0 0.0
2014-Nov-22 23:33N 49°29' E 000°07'0 0.0
2014-Nov-22 22:33N 49°29' E 000°07'0 0.0
2014-Nov-22 21:33N 49°29' E 000°07'6 5.7
2014-Nov-22 20:33N 49°31' W 000°02'6 5.7
2014-Nov-22 19:33N 49°29' E 000°07'0 0.0
2014-Nov-22 18:33N 49°29' E 000°07'0 0.0
2014-Nov-22 17:33N 49°29' E 000°07'0 0.0
2014-Nov-22 09:05N 49°29' E 000°07'  
2014-Nov-17 08:33N 49°29' E 000°07'0 0.0
2014-Nov-16 16:33N 49°29' E 000°07'  
2014-Nov-14 09:34N 49°29' E 000°07'0 0.0
2014-Nov-13 15:33N 49°29' E 000°07'0 0.0
2014-Nov-13 14:33N 49°29' E 000°07'0 0.0
2014-Nov-13 13:33N 49°29' E 000°07'0 0.0
2014-Nov-13 12:33N 49°29' E 000°07'0 0.0
2014-Nov-13 11:33N 49°29' E 000°07'  

Dump ship's entire track history